createdAt,value
2023-04-05T00:01:01.258Z,100.00
2023-04-05T00:05:58.410Z,100.00
2023-04-05T00:10:54.771Z,100.00
2023-04-05T00:15:51.094Z,100.00
2023-04-05T00:20:48.750Z,100.00
2023-04-05T00:25:45.214Z,100.00
2023-04-05T00:30:41.750Z,100.00
2023-04-05T00:35:38.330Z,100.00
2023-04-05T00:40:34.833Z,100.00
2023-04-05T00:45:31.483Z,100.00
2023-04-05T00:50:30.784Z,100.00
2023-04-05T00:55:27.112Z,100.00
2023-04-05T01:00:23.461Z,100.00
2023-04-05T01:05:23.947Z,100.00
2023-04-05T01:10:21.992Z,100.00
2023-04-05T01:15:18.902Z,100.00
2023-04-05T01:20:15.426Z,100.00
2023-04-05T01:25:42.719Z,100.00
2023-04-05T01:30:39.917Z,100.00
2023-04-05T01:35:39.531Z,100.00
2023-04-05T01:40:37.251Z,100.00
2023-04-05T01:45:33.513Z,100.00
2023-04-05T01:50:29.775Z,100.00
2023-04-05T01:55:26.052Z,100.00
2023-04-05T02:00:22.982Z,100.00
2023-04-05T02:05:19.294Z,100.00
2023-04-05T02:10:15.889Z,100.00
2023-04-05T02:15:12.343Z,100.00
2023-04-05T02:20:10.568Z,100.00
2023-04-05T02:25:08.954Z,100.00
2023-04-05T02:30:05.712Z,100.00
2023-04-05T02:35:02.589Z,100.00
2023-04-05T02:39:58.832Z,100.00
2023-04-05T02:44:55.134Z,100.00
2023-04-05T02:49:51.400Z,100.00
2023-04-05T02:54:47.644Z,100.00
2023-04-05T02:59:44.100Z,100.00
2023-04-05T03:04:40.895Z,100.00
2023-04-05T03:09:38.404Z,100.00
2023-04-05T03:14:34.765Z,100.00
2023-04-05T03:19:31.075Z,100.00
2023-04-05T03:24:27.338Z,100.00
2023-04-05T03:29:23.605Z,100.00
2023-04-05T03:34:19.900Z,100.00
2023-04-05T03:39:16.170Z,100.00
2023-04-05T03:44:12.542Z,100.00
2023-04-05T03:49:08.820Z,100.00
2023-04-05T03:54:05.226Z,100.00
2023-04-05T03:59:01.966Z,100.00
2023-04-05T04:04:00.254Z,100.00
2023-04-05T04:08:57.086Z,100.00
2023-04-05T04:13:53.961Z,100.00
2023-04-05T04:18:54.133Z,100.00
2023-04-05T04:23:51.816Z,100.00
2023-04-05T04:28:48.777Z,100.00
2023-04-05T04:33:45.007Z,100.00
2023-04-05T04:38:42.890Z,100.00
2023-04-05T04:43:44.143Z,100.00
2023-04-05T04:48:43.350Z,100.00
2023-04-05T04:53:39.587Z,100.00
2023-04-05T04:58:36.036Z,100.00
2023-04-05T05:03:34.349Z,100.00
2023-04-05T05:08:30.792Z,100.00
2023-04-05T05:13:27.151Z,100.00
2023-04-05T05:18:23.768Z,100.00
2023-04-05T05:23:21.218Z,100.00
2023-04-05T05:28:17.561Z,100.00
2023-04-05T05:33:13.853Z,100.00
2023-04-05T05:38:11.932Z,100.00
2023-04-05T05:43:12.873Z,100.00
2023-04-05T05:48:09.428Z,100.00
2023-04-05T05:53:05.942Z,100.00
2023-04-05T05:58:02.186Z,100.00
2023-04-05T06:02:59.215Z,100.00
2023-04-05T06:07:55.804Z,100.00
2023-04-05T06:12:52.264Z,100.00
2023-04-05T06:17:48.620Z,100.00
2023-04-05T06:22:44.958Z,100.00
2023-04-05T06:27:41.343Z,100.00
2023-04-05T06:32:37.743Z,100.00
2023-04-05T06:37:34.042Z,100.00
2023-04-05T06:42:30.419Z,100.00
2023-04-05T06:47:26.719Z,100.00
2023-04-05T06:52:22.970Z,100.00
2023-04-05T06:57:19.286Z,100.00
2023-04-05T07:02:15.516Z,100.00
2023-04-05T07:07:11.919Z,100.00
2023-04-05T07:12:08.656Z,100.00
2023-04-05T07:17:06.092Z,100.00
2023-04-05T07:22:02.428Z,100.00
2023-04-05T07:26:58.676Z,100.00
2023-04-05T07:31:54.970Z,100.00
2023-04-05T07:36:51.241Z,100.00
2023-04-05T07:41:47.485Z,94.42
2023-04-05T07:46:49.124Z,86.97
2023-04-05T07:51:46.374Z,74.23
2023-04-05T07:56:43.060Z,71.39
2023-04-05T08:01:39.976Z,66.86
2023-04-05T08:06:36.812Z,63.83
2023-04-05T08:11:33.334Z,63.85
2023-04-05T08:16:29.788Z,61.91
2023-04-05T08:21:26.620Z,62.56
2023-04-05T08:26:23.013Z,61.15
2023-04-05T08:31:20.901Z,60.03
2023-04-05T08:36:17.580Z,57.06
2023-04-05T08:41:14.886Z,59.34
2023-04-05T08:46:13.426Z,58.26
2023-04-05T08:51:09.857Z,55.41
2023-04-05T08:56:06.898Z,58.26
2023-04-05T09:01:04.696Z,57.47
2023-04-05T09:06:01.448Z,56.46
2023-04-05T09:10:58.218Z,57.55
2023-04-05T09:15:54.637Z,54.67
2023-04-05T09:20:51.172Z,57.54
2023-04-05T09:25:52.522Z,55.59
2023-04-05T09:30:48.972Z,53.51
2023-04-05T09:35:45.298Z,52.05
2023-04-05T09:40:43.648Z,52.57
2023-04-05T09:45:41.667Z,53.18
2023-04-05T09:50:38.172Z,54.41
2023-04-05T09:55:34.586Z,52.63
2023-04-05T10:00:33.653Z,52.93
2023-04-05T10:05:30.012Z,51.44
2023-04-05T10:10:26.348Z,50.84
2023-04-05T10:15:23.298Z,50.96
2023-04-05T10:20:20.413Z,49.51
2023-04-05T10:25:16.683Z,51.57
2023-04-05T10:30:13.115Z,50.30
2023-04-05T10:35:12.731Z,48.86
2023-04-05T10:40:12.870Z,47.90
2023-04-05T10:45:12.261Z,47.28
2023-04-05T10:50:09.199Z,46.83
2023-04-05T10:55:06.004Z,47.65
2023-04-05T11:00:02.501Z,51.70
2023-04-05T11:05:03.181Z,49.22
2023-04-05T11:10:01.714Z,45.42
2023-04-05T11:15:18.039Z,49.70
2023-04-05T11:20:14.344Z,48.42
2023-04-05T11:25:21.760Z,47.76
2023-04-05T11:30:38.004Z,43.92
2023-04-05T11:35:34.619Z,44.92
2023-04-05T11:40:31.969Z,46.70
2023-04-05T11:45:31.866Z,47.43
2023-04-05T11:50:28.670Z,45.59
2023-04-05T11:55:27.792Z,44.19
2023-04-05T12:00:24.109Z,46.10
2023-04-05T12:05:20.453Z,42.98
2023-04-05T12:10:17.260Z,44.09
2023-04-05T12:15:15.136Z,45.53
2023-04-05T12:20:12.711Z,43.94
2023-04-05T12:25:09.291Z,43.47
2023-04-05T12:30:06.500Z,44.67
2023-04-05T12:35:06.012Z,46.63
2023-04-05T12:40:03.092Z,42.02
2023-04-05T12:45:06.597Z,43.43
2023-04-05T12:50:12.948Z,43.18
2023-04-05T12:55:16.141Z,42.78
2023-04-05T13:00:12.647Z,42.80
2023-04-05T13:05:09.342Z,41.77
2023-04-05T13:10:06.003Z,42.50
2023-04-05T13:15:02.304Z,44.78
2023-04-05T13:19:58.567Z,44.04
2023-04-05T13:24:54.937Z,41.31
2023-04-05T13:29:51.659Z,43.02
2023-04-05T13:34:48.794Z,44.79
2023-04-05T13:39:45.337Z,45.20
2023-04-05T13:44:41.741Z,44.91
2023-04-05T13:49:38.353Z,44.62
2023-04-05T13:54:34.818Z,44.02
2023-04-05T13:59:31.277Z,43.69
2023-04-05T14:04:28.777Z,45.51
2023-04-05T14:09:25.270Z,44.50
2023-04-05T14:14:21.617Z,44.57
2023-04-05T14:19:18.392Z,42.09
2023-04-05T14:24:14.686Z,42.05
2023-04-05T14:29:11.088Z,45.29
2023-04-05T14:34:07.394Z,44.78
2023-04-05T14:39:04.284Z,45.47
2023-04-05T14:44:00.958Z,43.05
2023-04-05T14:48:57.299Z,44.94
2023-04-05T14:53:53.609Z,45.84
2023-04-05T14:58:49.925Z,44.89
2023-04-05T15:03:48.351Z,46.85
2023-04-05T15:08:44.757Z,45.69
2023-04-05T15:13:41.169Z,45.51
2023-04-05T15:18:37.674Z,43.85
2023-04-05T15:23:34.265Z,48.02
2023-04-05T15:28:30.528Z,46.32
2023-04-05T15:33:26.870Z,47.25
2023-04-05T15:38:23.151Z,47.71
2023-04-05T15:43:20.801Z,45.61
2023-04-05T15:48:17.204Z,47.38
2023-04-05T15:53:13.506Z,46.09
2023-04-05T15:58:09.777Z,45.25
2023-04-05T16:03:06.363Z,46.32
2023-04-05T16:08:02.772Z,47.29
2023-04-05T16:12:59.059Z,46.49
2023-04-05T16:17:56.097Z,46.07
2023-04-05T16:22:52.718Z,44.76
2023-04-05T16:27:49.027Z,44.49
2023-04-05T16:32:45.387Z,47.12
2023-04-05T16:37:42.811Z,42.68
2023-04-05T16:42:39.268Z,41.56
2023-04-05T16:47:35.755Z,39.68
2023-04-05T16:52:32.066Z,37.83
2023-04-05T16:57:28.347Z,34.19
2023-04-05T17:02:24.649Z,31.04
2023-04-05T17:07:21.158Z,32.14
2023-04-05T17:12:17.477Z,33.18
2023-04-05T17:17:13.755Z,32.09
2023-04-05T17:22:10.054Z,31.64
2023-04-05T17:27:06.462Z,32.26
2023-04-05T17:32:02.894Z,34.26
2023-04-05T17:37:01.289Z,36.74
2023-04-05T17:41:57.582Z,41.34
2023-04-05T17:47:05.513Z,44.23
2023-04-05T17:52:08.465Z,46.89
2023-04-05T17:57:05.504Z,49.79
2023-04-05T18:02:01.865Z,49.96
2023-04-05T18:06:58.184Z,51.54
2023-04-05T18:11:54.448Z,50.94
2023-04-05T18:16:50.925Z,51.16
2023-04-05T18:21:47.368Z,51.88
2023-04-05T18:26:43.728Z,53.03
2023-04-05T18:31:40.148Z,53.02
2023-04-05T18:36:39.534Z,53.93
2023-04-05T18:41:35.819Z,53.67
2023-04-05T18:46:32.165Z,54.42
2023-04-05T18:51:28.572Z,55.28
2023-04-05T18:56:26.390Z,57.27
2023-04-05T19:01:23.565Z,59.26
2023-04-05T19:06:20.286Z,60.70
2023-04-05T19:11:18.464Z,63.21
2023-04-05T19:16:17.294Z,66.90
2023-04-05T19:21:13.999Z,70.38
2023-04-05T19:26:10.903Z,72.47
2023-04-05T19:31:07.908Z,75.76
2023-04-05T19:36:04.414Z,78.20
2023-04-05T19:41:00.824Z,82.37
2023-04-05T19:45:58.144Z,89.66
2023-04-05T19:50:56.474Z,93.00
2023-04-05T19:55:52.977Z,97.81
2023-04-05T20:00:52.781Z,100.00
2023-04-05T20:05:49.182Z,100.00
2023-04-05T20:10:52.019Z,100.00
2023-04-05T20:15:51.296Z,100.00
2023-04-05T20:20:47.773Z,100.00
2023-04-05T20:25:44.586Z,100.00
2023-04-05T20:30:41.095Z,100.00
2023-04-05T20:35:37.549Z,100.00
2023-04-05T20:40:33.907Z,100.00
2023-04-05T20:45:30.167Z,100.00
2023-04-05T20:50:26.424Z,100.00
2023-04-05T20:55:22.824Z,100.00
2023-04-05T21:00:19.551Z,100.00
2023-04-05T21:05:15.836Z,100.00
2023-04-05T21:10:13.268Z,100.00
2023-04-05T21:15:09.658Z,100.00
2023-04-05T21:20:06.217Z,100.00
2023-04-05T21:25:07.934Z,100.00
2023-04-05T21:30:04.520Z,100.00
2023-04-05T21:35:00.988Z,100.00
2023-04-05T21:39:57.284Z,100.00
2023-04-05T21:44:53.578Z,100.00
2023-04-05T21:49:50.071Z,100.00
2023-04-05T21:54:46.490Z,100.00
2023-04-05T21:59:42.808Z,100.00
2023-04-05T22:04:39.543Z,100.00
2023-04-05T22:09:35.852Z,100.00
2023-04-05T22:14:32.300Z,100.00
2023-04-05T22:19:28.660Z,100.00
2023-04-05T22:24:26.103Z,100.00
2023-04-05T22:29:22.838Z,100.00
2023-04-05T22:34:19.103Z,100.00
2023-04-05T22:39:15.564Z,100.00
2023-04-05T22:44:11.927Z,100.00
2023-04-05T22:49:08.717Z,100.00
2023-04-05T22:54:05.246Z,100.00
2023-04-05T22:59:01.842Z,100.00
2023-04-05T23:03:58.148Z,100.00
2023-04-05T23:08:54.424Z,100.00
2023-04-05T23:13:50.967Z,100.00
2023-04-05T23:18:49.100Z,100.00
2023-04-05T23:23:45.373Z,100.00
2023-04-05T23:28:41.713Z,100.00
2023-04-05T23:33:38.043Z,100.00
2023-04-05T23:38:34.304Z,100.00
2023-04-05T23:43:30.729Z,100.00
2023-04-05T23:48:27.295Z,100.00
2023-04-05T23:53:23.679Z,100.00
2023-04-05T23:58:20.474Z,100.00
